UKR331 UKBB-UKLL
Flight info
| Callsign | UKR331 |
|---|---|
| Flight time | 1h 11m |
| Altitude | 32000 |
| Route | KAFEL P27 LAPVA/K0804F260 P27 GORKU |
| Aircraft | B738/M-SDE2E3FGHIRWXY/LB1 |
Departure
| Time | 2026-04-22 17:13 |
|---|---|
| Airport | Boryspil International Airport (UKBB) |
Arrival
| Time | 2026-04-22 18:25 |
|---|---|
| Airport | Lviv International Airport (UKLL) |
| Time | Latitude | Longitude | Altitude | Speed | Heading |
|---|---|---|---|---|---|
| 2026-04-22 16:31 | 50.35188 | 30.89896 | 411 ft | 0 kts | 272° |
| 2026-04-22 17:06 | 50.35188 | 30.89899 | 414 ft | 2 kts | 272° |
| 2026-04-22 17:06 | 50.35187 | 30.89927 | 408 ft | 3 kts | 272° |
| 2026-04-22 17:06 | 50.35186 | 30.89965 | 408 ft | 3 kts | 272° |
| 2026-04-22 17:07 | 50.35185 | 30.90003 | 408 ft | 3 kts | 279° |
| 2026-04-22 17:07 | 50.35170 | 30.90023 | 406 ft | 0 kts | 7° |
| 2026-04-22 17:08 | 50.35176 | 30.90024 | 405 ft | 3 kts | 7° |
| 2026-04-22 17:08 | 50.35210 | 30.90075 | 412 ft | 12 kts | 83° |
| 2026-04-22 17:08 | 50.35212 | 30.90231 | 410 ft | 17 kts | 51° |
| 2026-04-22 17:09 | 50.35320 | 30.90268 | 410 ft | 16 kts | 2° |
| 2026-04-22 17:09 | 50.35429 | 30.90276 | 408 ft | 15 kts | 3° |
| 2026-04-22 17:09 | 50.35534 | 30.90284 | 412 ft | 15 kts | 2° |
| 2026-04-22 17:09 | 50.35634 | 30.90291 | 406 ft | 14 kts | 2° |
| 2026-04-22 17:10 | 50.35731 | 30.90298 | 414 ft | 14 kts | 2° |
| 2026-04-22 17:10 | 50.35823 | 30.90304 | 410 ft | 13 kts | 2° |
| 2026-04-22 17:10 | 50.35913 | 30.90310 | 411 ft | 13 kts | 3° |
| 2026-04-22 17:10 | 50.36009 | 30.90323 | 414 ft | 14 kts | 11° |
| 2026-04-22 17:11 | 50.36039 | 30.90340 | 411 ft | 0 kts | 27° |
| 2026-04-22 17:11 | 50.36041 | 30.90343 | 410 ft | 2 kts | 28° |
| 2026-04-22 17:11 | 50.36075 | 30.90399 | 408 ft | 14 kts | 62° |
| 2026-04-22 17:12 | 50.36038 | 30.90598 | 415 ft | 27 kts | 144° |
| 2026-04-22 17:12 | 50.35909 | 30.90637 | 409 ft | 0 kts | 181° |
| 2026-04-22 17:12 | 50.35802 | 30.90629 | 417 ft | 44 kts | 183° |
| 2026-04-22 17:12 | 50.35244 | 30.90589 | 409 ft | 114 kts | 182° |
| 2026-04-22 17:13 | 50.34248 | 30.90516 | 415 ft | 170 kts | 184° |
| 2026-04-22 17:13 | 50.33004 | 30.90428 | 1065 ft | 174 kts | 187° |
| 2026-04-22 17:13 | 50.31861 | 30.90189 | 2109 ft | 165 kts | 191° |
| 2026-04-22 17:13 | 50.30655 | 30.90000 | 2494 ft | 191 kts | 189° |
| 2026-04-22 17:14 | 50.29240 | 30.89806 | 2778 ft | 217 kts | 186° |
| 2026-04-22 17:14 | 50.27653 | 30.89734 | 3002 ft | 238 kts | 184° |
| 2026-04-22 17:14 | 50.25963 | 30.89682 | 3431 ft | 247 kts | 184° |
| 2026-04-22 17:14 | 50.24240 | 30.89618 | 4013 ft | 248 kts | 184° |
| 2026-04-22 17:15 | 50.23093 | 30.89569 | 4386 ft | 250 kts | 184° |
| 2026-04-22 17:15 | 50.20745 | 30.89460 | 5129 ft | 254 kts | 184° |
| 2026-04-22 17:15 | 50.18970 | 30.89375 | 5692 ft | 256 kts | 184° |
| 2026-04-22 17:15 | 50.17189 | 30.89681 | 6196 ft | 263 kts | 159° |
| 2026-04-22 17:16 | 50.15766 | 30.91361 | 6715 ft | 263 kts | 125° |
| 2026-04-22 17:16 | 50.15078 | 30.93955 | 7240 ft | 260 kts | 94° |
| 2026-04-22 17:16 | 50.15274 | 30.96703 | 7755 ft | 254 kts | 64° |
| 2026-04-22 17:16 | 50.15897 | 30.99277 | 8269 ft | 260 kts | 78° |
| 2026-04-22 17:17 | 50.15702 | 31.02120 | 8678 ft | 275 kts | 105° |
| 2026-04-22 17:17 | 50.15344 | 31.05102 | 8974 ft | 284 kts | 80° |
| 2026-04-22 17:17 | 50.16093 | 31.07859 | 9710 ft | 277 kts | 44° |
| 2026-04-22 17:17 | 50.17676 | 31.09425 | 10437 ft | 273 kts | 13° |
| 2026-04-22 17:18 | 50.19587 | 31.09884 | 10657 ft | 293 kts | 357° |
| 2026-04-22 17:18 | 50.21586 | 31.08923 | 10848 ft | 315 kts | 329° |
| 2026-04-22 17:18 | 50.23473 | 31.06967 | 11025 ft | 336 kts | 327° |
| 2026-04-22 17:18 | 50.25474 | 31.04910 | 11342 ft | 351 kts | 328° |
| 2026-04-22 17:19 | 50.29647 | 31.00748 | 12657 ft | 359 kts | 329° |
| 2026-04-22 17:19 | 50.33927 | 30.96581 | 14054 ft | 366 kts | 329° |
| 2026-04-22 17:20 | 50.38049 | 30.91921 | 15372 ft | 377 kts | 311° |
| 2026-04-22 17:20 | 50.39942 | 30.84178 | 16688 ft | 397 kts | 277° |
| 2026-04-22 17:21 | 50.40026 | 30.79823 | 17319 ft | 403 kts | 274° |
| 2026-04-22 17:21 | 50.40071 | 30.70924 | 18447 ft | 413 kts | 274° |
| 2026-04-22 17:22 | 50.40135 | 30.61823 | 19436 ft | 423 kts | 275° |
| 2026-04-22 17:22 | 50.40182 | 30.57253 | 19918 ft | 427 kts | 275° |
| 2026-04-22 17:22 | 50.40285 | 30.47848 | 20869 ft | 437 kts | 275° |
| 2026-04-22 17:23 | 50.40336 | 30.43066 | 21341 ft | 441 kts | 275° |
| 2026-04-22 17:23 | 50.40434 | 30.33358 | 22259 ft | 450 kts | 275° |
| 2026-04-22 17:23 | 50.40552 | 30.28442 | 22691 ft | 451 kts | 282° |
| 2026-04-22 17:24 | 50.41349 | 30.23734 | 23127 ft | 446 kts | 294° |
| 2026-04-22 17:24 | 50.42359 | 30.19116 | 23587 ft | 450 kts | 294° |
| 2026-04-22 17:24 | 50.43368 | 30.14452 | 23932 ft | 454 kts | 294° |
| 2026-04-22 17:24 | 50.44355 | 30.09797 | 24291 ft | 457 kts | 293° |
| 2026-04-22 17:25 | 50.45342 | 30.05045 | 24673 ft | 460 kts | 293° |
| 2026-04-22 17:25 | 50.46323 | 30.00252 | 25029 ft | 463 kts | 293° |
| 2026-04-22 17:25 | 50.47301 | 29.95431 | 25401 ft | 465 kts | 293° |
| 2026-04-22 17:25 | 50.48281 | 29.90574 | 25746 ft | 468 kts | 293° |
| 2026-04-22 17:26 | 50.49265 | 29.85685 | 26067 ft | 471 kts | 293° |
| 2026-04-22 17:26 | 50.50253 | 29.80764 | 26400 ft | 474 kts | 293° |
| 2026-04-22 17:26 | 50.51245 | 29.75817 | 26729 ft | 476 kts | 293° |
| 2026-04-22 17:26 | 50.52229 | 29.70897 | 27048 ft | 479 kts | 293° |
| 2026-04-22 17:27 | 50.53227 | 29.65896 | 27356 ft | 482 kts | 293° |
| 2026-04-22 17:27 | 50.54229 | 29.60863 | 27694 ft | 483 kts | 293° |
| 2026-04-22 17:27 | 50.55227 | 29.55827 | 28185 ft | 481 kts | 293° |
| 2026-04-22 17:27 | 50.56216 | 29.50822 | 28742 ft | 478 kts | 293° |
| 2026-04-22 17:28 | 50.57201 | 29.45837 | 29197 ft | 477 kts | 293° |
| 2026-04-22 17:28 | 50.58188 | 29.40841 | 29575 ft | 478 kts | 293° |
| 2026-04-22 17:28 | 50.59173 | 29.35833 | 29986 ft | 478 kts | 293° |
| 2026-04-22 17:28 | 50.59994 | 29.30783 | 30344 ft | 486 kts | 282° |
| 2026-04-22 17:29 | 50.59921 | 29.25404 | 30707 ft | 497 kts | 263° |
| 2026-04-22 17:29 | 50.58905 | 29.20179 | 31134 ft | 501 kts | 251° |
| 2026-04-22 17:29 | 50.57592 | 29.15158 | 31594 ft | 499 kts | 250° |
| 2026-04-22 17:29 | 50.56239 | 29.10134 | 31921 ft | 500 kts | 250° |
| 2026-04-22 17:30 | 50.53703 | 28.99908 | 31935 ft | 501 kts | 255° |
| 2026-04-22 17:30 | 50.51711 | 28.89452 | 31929 ft | 497 kts | 257° |
| 2026-04-22 17:31 | 50.49820 | 28.79096 | 31927 ft | 496 kts | 257° |
| 2026-04-22 17:31 | 50.47862 | 28.68731 | 31931 ft | 495 kts | 256° |
| 2026-04-22 17:32 | 50.45857 | 28.58397 | 31936 ft | 495 kts | 256° |
| 2026-04-22 17:32 | 50.43831 | 28.48075 | 31936 ft | 495 kts | 256° |
| 2026-04-22 17:33 | 50.41795 | 28.37749 | 31938 ft | 496 kts | 256° |
| 2026-04-22 17:33 | 50.39760 | 28.27467 | 31946 ft | 498 kts | 256° |
| 2026-04-22 17:34 | 50.37697 | 28.17099 | 31947 ft | 499 kts | 256° |
| 2026-04-22 17:34 | 50.35619 | 28.06712 | 31950 ft | 500 kts | 256° |
| 2026-04-22 17:35 | 50.33528 | 27.96311 | 31953 ft | 501 kts | 256° |
| 2026-04-22 17:35 | 50.31437 | 27.85968 | 31960 ft | 502 kts | 255° |
| 2026-04-22 17:36 | 50.29320 | 27.75551 | 31953 ft | 503 kts | 255° |
| 2026-04-22 17:36 | 50.27190 | 27.65128 | 31947 ft | 503 kts | 255° |
| 2026-04-22 17:37 | 50.25052 | 27.54719 | 31955 ft | 503 kts | 255° |
| 2026-04-22 17:37 | 50.22906 | 27.44323 | 31958 ft | 503 kts | 255° |
| 2026-04-22 17:38 | 50.20765 | 27.34008 | 31958 ft | 502 kts | 255° |
| 2026-04-22 17:38 | 50.18603 | 27.23645 | 31964 ft | 502 kts | 255° |
| 2026-04-22 17:39 | 50.16436 | 27.13308 | 31959 ft | 501 kts | 255° |
| 2026-04-22 17:40 | 50.13179 | 26.97875 | 31963 ft | 499 kts | 255° |
| 2026-04-22 17:40 | 50.11016 | 26.87690 | 31973 ft | 498 kts | 255° |
| 2026-04-22 17:41 | 50.08832 | 26.77455 | 31986 ft | 498 kts | 254° |
| 2026-04-22 17:41 | 50.06409 | 26.67320 | 31978 ft | 501 kts | 249° |
| 2026-04-22 17:42 | 50.03585 | 26.57384 | 31986 ft | 503 kts | 248° |
| 2026-04-22 17:42 | 50.00743 | 26.47508 | 31982 ft | 504 kts | 248° |
| 2026-04-22 17:43 | 49.97926 | 26.37521 | 31969 ft | 505 kts | 249° |
| 2026-04-22 17:43 | 49.95125 | 26.27511 | 31986 ft | 506 kts | 249° |
| 2026-04-22 17:44 | 49.92312 | 26.17480 | 31991 ft | 507 kts | 249° |
| 2026-04-22 17:44 | 49.89484 | 26.07457 | 31996 ft | 507 kts | 248° |
| 2026-04-22 17:44 | 49.88075 | 26.02482 | 31894 ft | 500 kts | 248° |
| 2026-04-22 17:45 | 49.86674 | 25.97549 | 31084 ft | 501 kts | 248° |
| 2026-04-22 17:45 | 49.85271 | 25.92616 | 30460 ft | 500 kts | 248° |
| 2026-04-22 17:45 | 49.83881 | 25.87736 | 29647 ft | 502 kts | 248° |
| 2026-04-22 17:45 | 49.82466 | 25.82780 | 28789 ft | 503 kts | 248° |
| 2026-04-22 17:46 | 49.81051 | 25.77835 | 27965 ft | 503 kts | 248° |
| 2026-04-22 17:46 | 49.79631 | 25.72883 | 27110 ft | 503 kts | 248° |
| 2026-04-22 17:46 | 49.78209 | 25.67934 | 26190 ft | 504 kts | 248° |
| 2026-04-22 17:46 | 49.76785 | 25.62986 | 25315 ft | 504 kts | 248° |
| 2026-04-22 17:47 | 49.75363 | 25.58060 | 24688 ft | 498 kts | 248° |
| 2026-04-22 17:47 | 49.73955 | 25.53193 | 24040 ft | 493 kts | 248° |
| 2026-04-22 17:47 | 49.72558 | 25.48375 | 23352 ft | 489 kts | 248° |
| 2026-04-22 17:47 | 49.71194 | 25.43675 | 22628 ft | 483 kts | 248° |
| 2026-04-22 17:48 | 49.69826 | 25.38972 | 21980 ft | 477 kts | 248° |
| 2026-04-22 17:48 | 49.68475 | 25.34335 | 21327 ft | 470 kts | 248° |
| 2026-04-22 17:48 | 49.67141 | 25.29763 | 20685 ft | 464 kts | 248° |
| 2026-04-22 17:48 | 49.65822 | 25.25251 | 20049 ft | 458 kts | 248° |
| 2026-04-22 17:49 | 49.64517 | 25.20794 | 19423 ft | 453 kts | 248° |
| 2026-04-22 17:49 | 49.63225 | 25.16390 | 18805 ft | 448 kts | 248° |
| 2026-04-22 17:49 | 49.61983 | 25.12028 | 18175 ft | 441 kts | 252° |
| 2026-04-22 17:49 | 49.61447 | 25.07469 | 17535 ft | 427 kts | 274° |
| 2026-04-22 17:50 | 49.61783 | 25.03077 | 17223 ft | 410 kts | 287° |
| 2026-04-22 17:50 | 49.62694 | 24.98978 | 16621 ft | 400 kts | 297° |
| 2026-04-22 17:50 | 49.63808 | 24.95079 | 16016 ft | 395 kts | 297° |
| 2026-04-22 17:50 | 49.64931 | 24.91222 | 15421 ft | 392 kts | 297° |
| 2026-04-22 17:51 | 49.66037 | 24.87407 | 14838 ft | 388 kts | 297° |
| 2026-04-22 17:51 | 49.67125 | 24.83612 | 14251 ft | 385 kts | 297° |
| 2026-04-22 17:51 | 49.68194 | 24.79835 | 13658 ft | 382 kts | 296° |
| 2026-04-22 17:51 | 49.69245 | 24.76090 | 13043 ft | 378 kts | 296° |
| 2026-04-22 17:52 | 49.70280 | 24.72382 | 12483 ft | 373 kts | 296° |
| 2026-04-22 17:52 | 49.71294 | 24.68732 | 12212 ft | 362 kts | 296° |
| 2026-04-22 17:52 | 49.72251 | 24.65274 | 12025 ft | 349 kts | 296° |
| 2026-04-22 17:52 | 49.73187 | 24.61890 | 11863 ft | 336 kts | 296° |
| 2026-04-22 17:53 | 49.74091 | 24.58624 | 11733 ft | 325 kts | 296° |
| 2026-04-22 17:53 | 49.74962 | 24.55469 | 11607 ft | 314 kts | 296° |
| 2026-04-22 17:53 | 49.75806 | 24.52412 | 11485 ft | 304 kts | 296° |
| 2026-04-22 17:53 | 49.76622 | 24.49451 | 11359 ft | 295 kts | 296° |
| 2026-04-22 17:54 | 49.77413 | 24.46582 | 11237 ft | 286 kts | 296° |
| 2026-04-22 17:54 | 49.78179 | 24.43797 | 11126 ft | 277 kts | 296° |
| 2026-04-22 17:54 | 49.78922 | 24.41095 | 11013 ft | 269 kts | 296° |
| 2026-04-22 17:54 | 49.79632 | 24.38508 | 10904 ft | 261 kts | 296° |
| 2026-04-22 17:55 | 49.80331 | 24.35955 | 10790 ft | 254 kts | 296° |
| 2026-04-22 17:55 | 49.81010 | 24.33474 | 10689 ft | 246 kts | 296° |
| 2026-04-22 17:55 | 49.81687 | 24.31086 | 10571 ft | 238 kts | 302° |
| 2026-04-22 17:55 | 49.82736 | 24.29183 | 10399 ft | 229 kts | 319° |
| 2026-04-22 17:56 | 49.83901 | 24.27493 | 10150 ft | 229 kts | 318° |
| 2026-04-22 17:56 | 49.84944 | 24.25648 | 9891 ft | 231 kts | 298° |
| 2026-04-22 17:56 | 49.85242 | 24.23213 | 9652 ft | 235 kts | 267° |
| 2026-04-22 17:56 | 49.84743 | 24.20825 | 9427 ft | 242 kts | 242° |
| 2026-04-22 17:57 | 49.83680 | 24.18793 | 9202 ft | 243 kts | 231° |
| 2026-04-22 17:57 | 49.82452 | 24.16985 | 8924 ft | 246 kts | 217° |
| 2026-04-22 17:57 | 49.80825 | 24.16165 | 8665 ft | 251 kts | 181° |
| 2026-04-22 17:57 | 49.79146 | 24.16819 | 8442 ft | 254 kts | 149° |
| 2026-04-22 17:58 | 49.77772 | 24.18493 | 8229 ft | 253 kts | 135° |
| 2026-04-22 17:58 | 49.76512 | 24.20389 | 7968 ft | 253 kts | 134° |
| 2026-04-22 17:58 | 49.75272 | 24.22312 | 7714 ft | 252 kts | 134° |
| 2026-04-22 17:58 | 49.74030 | 24.24218 | 7475 ft | 252 kts | 135° |
| 2026-04-22 17:59 | 49.72779 | 24.26107 | 7234 ft | 251 kts | 135° |
| 2026-04-22 17:59 | 49.71543 | 24.27959 | 7000 ft | 250 kts | 135° |
| 2026-04-22 17:59 | 49.70294 | 24.29824 | 6771 ft | 249 kts | 135° |
| 2026-04-22 17:59 | 49.69061 | 24.31661 | 6575 ft | 243 kts | 136° |
| 2026-04-22 18:00 | 49.68242 | 24.32827 | 6405 ft | 240 kts | 143° |
| 2026-04-22 18:00 | 49.66208 | 24.33732 | 6108 ft | 225 kts | 192° |
| 2026-04-22 18:00 | 49.64765 | 24.32946 | 5912 ft | 218 kts | 217° |
| 2026-04-22 18:00 | 49.63642 | 24.31452 | 5728 ft | 210 kts | 231° |
| 2026-04-22 18:01 | 49.62634 | 24.29838 | 5524 ft | 209 kts | 231° |
| 2026-04-22 18:01 | 49.61713 | 24.28178 | 5312 ft | 203 kts | 247° |
| 2026-04-22 18:01 | 49.61494 | 24.26197 | 5150 ft | 180 kts | 284° |
| 2026-04-22 18:01 | 49.61928 | 24.24477 | 4968 ft | 168 kts | 307° |
| 2026-04-22 18:02 | 49.62762 | 24.23271 | 4794 ft | 163 kts | 321° |
| 2026-04-22 18:02 | 49.63593 | 24.22134 | 4643 ft | 154 kts | 317° |
| 2026-04-22 18:02 | 49.64361 | 24.21008 | 4395 ft | 156 kts | 317° |
| 2026-04-22 18:02 | 49.65163 | 24.19810 | 4269 ft | 165 kts | 316° |
| 2026-04-22 18:03 | 49.65990 | 24.18561 | 4081 ft | 166 kts | 316° |
| 2026-04-22 18:03 | 49.66802 | 24.17331 | 3871 ft | 163 kts | 316° |
| 2026-04-22 18:03 | 49.67597 | 24.16125 | 3689 ft | 156 kts | 316° |
| 2026-04-22 18:03 | 49.68346 | 24.14987 | 3510 ft | 152 kts | 316° |
| 2026-04-22 18:04 | 49.69095 | 24.13851 | 3326 ft | 149 kts | 316° |
| 2026-04-22 18:04 | 49.69824 | 24.12745 | 3160 ft | 147 kts | 316° |
| 2026-04-22 18:04 | 49.70556 | 24.11634 | 3088 ft | 148 kts | 316° |
| 2026-04-22 18:04 | 49.71290 | 24.10519 | 3080 ft | 150 kts | 316° |
| 2026-04-22 18:05 | 49.72036 | 24.09389 | 3030 ft | 149 kts | 316° |
| 2026-04-22 18:05 | 49.72754 | 24.08299 | 3051 ft | 144 kts | 316° |
| 2026-04-22 18:05 | 49.73466 | 24.07220 | 2945 ft | 140 kts | 316° |
| 2026-04-22 18:05 | 49.74149 | 24.06183 | 2770 ft | 135 kts | 316° |
| 2026-04-22 18:06 | 49.74818 | 24.05171 | 2583 ft | 134 kts | 316° |
| 2026-04-22 18:06 | 49.75502 | 24.04086 | 2646 ft | 149 kts | 312° |
| 2026-04-22 18:06 | 49.76003 | 24.02895 | 3677 ft | 114 kts | 295° |
| 2026-04-22 18:06 | 49.76114 | 24.01642 | 4110 ft | 141 kts | 272° |
| 2026-04-22 18:07 | 49.75859 | 23.99811 | 3648 ft | 200 kts | 254° |
| 2026-04-22 18:07 | 49.75208 | 23.97882 | 3528 ft | 198 kts | 242° |
| 2026-04-22 18:07 | 49.74409 | 23.96255 | 3491 ft | 185 kts | 240° |
| 2026-04-22 18:07 | 49.74020 | 23.94515 | 3272 ft | 165 kts | 280° |
| 2026-04-22 18:08 | 49.74480 | 23.93001 | 3028 ft | 156 kts | 314° |
| 2026-04-22 18:08 | 49.75252 | 23.91828 | 2888 ft | 153 kts | 316° |
| 2026-04-22 18:08 | 49.76035 | 23.90692 | 2948 ft | 164 kts | 317° |
| 2026-04-22 18:08 | 49.76908 | 23.89432 | 3061 ft | 175 kts | 317° |
| 2026-04-22 18:09 | 49.77795 | 23.88151 | 3260 ft | 173 kts | 317° |
| 2026-04-22 18:09 | 49.78676 | 23.86872 | 3528 ft | 175 kts | 317° |
| 2026-04-22 18:09 | 49.79558 | 23.85589 | 3816 ft | 176 kts | 317° |
| 2026-04-22 18:09 | 49.80484 | 23.84243 | 4046 ft | 188 kts | 317° |
| 2026-04-22 18:10 | 49.81372 | 23.82802 | 4016 ft | 186 kts | 302° |
| 2026-04-22 18:10 | 49.81648 | 23.80848 | 4036 ft | 195 kts | 265° |
| 2026-04-22 18:10 | 49.81036 | 23.78919 | 4042 ft | 211 kts | 230° |
| 2026-04-22 18:10 | 49.79724 | 23.77815 | 4019 ft | 223 kts | 194° |
| 2026-04-22 18:11 | 49.78164 | 23.77808 | 4046 ft | 226 kts | 178° |
| 2026-04-22 18:11 | 49.76587 | 23.78043 | 4030 ft | 228 kts | 177° |
| 2026-04-22 18:11 | 49.75006 | 23.78300 | 4024 ft | 229 kts | 177° |
| 2026-04-22 18:11 | 49.73420 | 23.78567 | 4027 ft | 230 kts | 177° |
| 2026-04-22 18:12 | 49.71835 | 23.78917 | 4008 ft | 232 kts | 165° |
| 2026-04-22 18:12 | 49.70483 | 23.80223 | 4034 ft | 231 kts | 132° |
| 2026-04-22 18:12 | 49.69792 | 23.81468 | 4037 ft | 231 kts | 128° |
| 2026-04-22 18:12 | 49.68466 | 23.84034 | 4031 ft | 231 kts | 127° |
| 2026-04-22 18:13 | 49.67468 | 23.85988 | 4032 ft | 232 kts | 127° |
| 2026-04-22 18:13 | 49.66470 | 23.87946 | 4031 ft | 232 kts | 127° |
| 2026-04-22 18:13 | 49.65469 | 23.89907 | 4029 ft | 233 kts | 127° |
| 2026-04-22 18:13 | 49.64468 | 23.91868 | 4032 ft | 233 kts | 127° |
| 2026-04-22 18:14 | 49.63467 | 23.93832 | 4032 ft | 233 kts | 127° |
| 2026-04-22 18:14 | 49.62463 | 23.95799 | 4022 ft | 233 kts | 127° |
| 2026-04-22 18:14 | 49.61459 | 23.97763 | 4023 ft | 233 kts | 127° |
| 2026-04-22 18:14 | 49.60459 | 23.99724 | 4024 ft | 232 kts | 127° |
| 2026-04-22 18:15 | 49.59474 | 24.01664 | 3902 ft | 235 kts | 127° |
| 2026-04-22 18:15 | 49.58459 | 24.03666 | 3682 ft | 236 kts | 127° |
| 2026-04-22 18:15 | 49.57452 | 24.05635 | 3446 ft | 232 kts | 127° |
| 2026-04-22 18:15 | 49.56466 | 24.07559 | 3196 ft | 226 kts | 127° |
| 2026-04-22 18:16 | 49.55519 | 24.09414 | 3043 ft | 214 kts | 127° |
| 2026-04-22 18:16 | 49.54619 | 24.11180 | 3029 ft | 209 kts | 127° |
| 2026-04-22 18:16 | 49.53725 | 24.12951 | 3043 ft | 209 kts | 122° |
| 2026-04-22 18:16 | 49.53279 | 24.14991 | 3029 ft | 195 kts | 83° |
| 2026-04-22 18:17 | 49.53691 | 24.16809 | 3005 ft | 172 kts | 40° |
| 2026-04-22 18:17 | 49.54695 | 24.17609 | 3050 ft | 165 kts | 359° |
| 2026-04-22 18:17 | 49.55827 | 24.17451 | 3032 ft | 167 kts | 348° |
| 2026-04-22 18:17 | 49.56974 | 24.17161 | 3025 ft | 167 kts | 347° |
| 2026-04-22 18:18 | 49.58121 | 24.16861 | 3030 ft | 167 kts | 347° |
| 2026-04-22 18:18 | 49.59274 | 24.16553 | 3038 ft | 169 kts | 347° |
| 2026-04-22 18:18 | 49.60419 | 24.16243 | 3015 ft | 164 kts | 347° |
| 2026-04-22 18:18 | 49.61519 | 24.15950 | 3010 ft | 158 kts | 347° |
| 2026-04-22 18:19 | 49.62603 | 24.15663 | 3023 ft | 159 kts | 347° |
| 2026-04-22 18:19 | 49.63702 | 24.15370 | 3024 ft | 162 kts | 347° |
| 2026-04-22 18:19 | 49.64814 | 24.15071 | 3040 ft | 162 kts | 347° |
| 2026-04-22 18:19 | 49.65929 | 24.14772 | 3028 ft | 163 kts | 347° |
| 2026-04-22 18:20 | 49.67032 | 24.14480 | 3028 ft | 163 kts | 347° |
| 2026-04-22 18:20 | 49.68149 | 24.14183 | 3021 ft | 162 kts | 346° |
| 2026-04-22 18:20 | 49.69145 | 24.13503 | 3058 ft | 153 kts | 319° |
| 2026-04-22 18:20 | 49.69949 | 24.12436 | 3021 ft | 150 kts | 319° |
| 2026-04-22 18:21 | 49.70707 | 24.11367 | 3010 ft | 145 kts | 317° |
| 2026-04-22 18:21 | 49.71437 | 24.10286 | 3028 ft | 148 kts | 316° |
| 2026-04-22 18:21 | 49.72183 | 24.09163 | 3062 ft | 152 kts | 316° |
| 2026-04-22 18:21 | 49.72936 | 24.08021 | 3028 ft | 150 kts | 316° |
| 2026-04-22 18:22 | 49.73688 | 24.06882 | 2894 ft | 152 kts | 317° |
| 2026-04-22 18:22 | 49.74427 | 24.05762 | 2694 ft | 143 kts | 317° |
| 2026-04-22 18:22 | 49.75113 | 24.04723 | 2525 ft | 134 kts | 316° |
| 2026-04-22 18:22 | 49.75764 | 24.03736 | 2347 ft | 132 kts | 316° |
| 2026-04-22 18:23 | 49.76423 | 24.02738 | 2166 ft | 133 kts | 316° |
| 2026-04-22 18:23 | 49.77087 | 24.01733 | 1978 ft | 134 kts | 316° |
| 2026-04-22 18:23 | 49.77759 | 24.00713 | 1778 ft | 137 kts | 315° |
| 2026-04-22 18:24 | 49.79183 | 23.98559 | 1383 ft | 146 kts | 315° |
| 2026-04-22 18:24 | 49.79907 | 23.97459 | 1161 ft | 144 kts | 314° |
| 2026-04-22 18:24 | 49.81149 | 23.95575 | 1064 ft | 87 kts | 315° |
| 2026-04-22 18:25 | 49.81467 | 23.95095 | 1062 ft | 43 kts | 315° |
| 2026-04-22 18:25 | 49.81671 | 23.94817 | 1063 ft | 30 kts | 346° |
| 2026-04-22 18:25 | 49.81753 | 23.94884 | 1065 ft | 0 kts | 43° |
| 2026-04-22 18:26 | 49.81755 | 23.94887 | 1065 ft | 1 kts | 43° |
| 2026-04-22 18:26 | 49.81758 | 23.94892 | 1065 ft | 0 kts | 43° |
| 2026-04-22 18:26 | 49.81760 | 23.94895 | 1065 ft | 2 kts | 49° |
| 2026-04-22 18:27 | 49.81768 | 23.94966 | 1065 ft | 12 kts | 105° |
| 2026-04-22 18:27 | 49.81692 | 23.95102 | 1065 ft | 22 kts | 136° |
| 2026-04-22 18:27 | 49.81571 | 23.95286 | 1065 ft | 26 kts | 136° |
| 2026-04-22 18:27 | 49.81433 | 23.95471 | 1065 ft | 26 kts | 152° |
| 2026-04-22 18:28 | 49.81299 | 23.95619 | 1065 ft | 21 kts | 123° |
| 2026-04-22 18:28 | 49.81284 | 23.95671 | 1066 ft | 3 kts | 99° |
| 2026-04-22 18:28 | 49.81292 | 23.95699 | 1065 ft | 3 kts | 58° |
| 2026-04-22 18:28 | 49.81320 | 23.95748 | 1065 ft | 11 kts | 45° |
| 2026-04-22 18:29 | 49.81340 | 23.95780 | 1065 ft | 0 kts | 46° |